createdAt,value
2019-02-23T00:00:44.882Z,15.25
2019-02-23T00:03:14.002Z,12.88
2019-02-23T00:05:43.112Z,12.05
2019-02-23T00:08:12.351Z,16.50
2019-02-23T00:10:41.467Z,12.15
2019-02-23T00:13:10.560Z,16.10
2019-02-23T00:15:39.816Z,12.28
2019-02-23T00:18:09.428Z,14.87
2019-02-23T00:20:38.781Z,17.98
2019-02-23T00:23:07.961Z,14.03
2019-02-23T00:25:37.070Z,12.98
2019-02-23T00:28:06.320Z,10.68
2019-02-23T00:30:35.439Z,15.50
2019-02-23T00:33:04.613Z,15.30
2019-02-23T00:35:33.724Z,11.80
2019-02-23T00:38:02.962Z,12.85
2019-02-23T00:40:32.067Z,12.53
2019-02-23T00:43:01.165Z,13.75
2019-02-23T00:45:30.287Z,12.35
2019-02-23T00:47:59.369Z,13.53
2019-02-23T00:50:28.489Z,13.80
2019-02-23T00:52:57.591Z,15.88
2019-02-23T00:55:26.683Z,14.03
2019-02-23T00:57:55.789Z,14.05
2019-02-23T01:00:24.891Z,18.57
2019-02-23T01:02:53.981Z,13.93
2019-02-23T01:05:23.216Z,15.85
2019-02-23T01:07:52.412Z,13.50
2019-02-23T01:10:21.503Z,13.38
2019-02-23T01:12:50.607Z,15.70
2019-02-23T01:15:19.697Z,13.15
2019-02-23T01:17:51.059Z,18.17
2019-02-23T01:20:20.211Z,18.27
2019-02-23T01:22:49.329Z,15.93
2019-02-23T01:25:18.561Z,15.50
2019-02-23T01:27:47.815Z,11.95
2019-02-23T01:30:16.983Z,16.60
2019-02-23T01:32:46.116Z,14.23
2019-02-23T01:35:15.281Z,15.70
2019-02-23T01:37:44.461Z,14.93
2019-02-23T01:40:13.548Z,15.43
2019-02-23T01:42:42.668Z,14.45
2019-02-23T01:45:11.899Z,16.48
2019-02-23T01:47:41.108Z,14.60
2019-02-23T01:50:10.447Z,14.58
2019-02-23T01:52:39.635Z,14.38
2019-02-23T01:55:09.405Z,14.20
2019-02-23T01:57:38.796Z,18.90
2019-02-23T02:00:11.531Z,18.73
2019-02-23T02:02:40.839Z,17.12
2019-02-23T02:05:10.271Z,12.95
2019-02-23T02:07:39.358Z,18.98
2019-02-23T02:10:10.709Z,14.70
2019-02-23T02:12:39.863Z,17.17
2019-02-23T02:15:11.353Z,16.02
2019-02-23T02:17:40.504Z,14.07
2019-02-23T02:20:11.435Z,18.98
2019-02-23T02:22:40.869Z,14.90
2019-02-23T02:25:10.103Z,17.70
2019-02-23T02:27:39.279Z,16.40
2019-02-23T02:30:10.108Z,18.15
2019-02-23T02:32:39.276Z,13.55
2019-02-23T02:35:09.419Z,14.33
2019-02-23T02:37:38.583Z,15.75
2019-02-23T02:40:08.727Z,16.52
2019-02-23T02:42:37.823Z,17.92
2019-02-23T02:45:08.555Z,20.82
2019-02-23T02:47:37.679Z,15.25
2019-02-23T02:50:08.189Z,16.93
2019-02-23T02:52:37.278Z,14.28
2019-02-23T02:55:07.523Z,14.28
2019-02-23T02:57:36.692Z,17.20
2019-02-23T03:00:08.128Z,17.32
2019-02-23T03:02:37.253Z,14.23
2019-02-23T03:05:06.543Z,17.90
2019-02-23T03:07:35.636Z,12.88
2019-02-23T03:10:04.897Z,15.83
2019-02-23T03:12:33.993Z,17.90
2019-02-23T03:15:03.111Z,17.45
2019-02-23T03:17:32.289Z,13.80
2019-02-23T03:20:01.431Z,13.72
2019-02-23T03:22:30.535Z,15.40
2019-02-23T03:24:59.700Z,16.85
2019-02-23T03:27:28.882Z,17.50
2019-02-23T03:29:57.980Z,17.62
2019-02-23T03:32:27.146Z,14.05
2019-02-23T03:34:56.341Z,14.10
2019-02-23T03:37:25.503Z,15.35
2019-02-23T03:39:54.585Z,13.53
2019-02-23T03:42:23.686Z,15.90
2019-02-23T03:44:52.831Z,12.35
2019-02-23T03:47:21.926Z,15.23
2019-02-23T03:49:51.028Z,15.05
2019-02-23T03:52:20.134Z,18.23
2019-02-23T03:54:49.285Z,13.13
2019-02-23T03:57:18.455Z,17.15
2019-02-23T03:59:47.697Z,16.25
2019-02-23T04:02:16.800Z,17.92
2019-02-23T04:04:45.881Z,13.05
2019-02-23T04:07:15.060Z,15.03
2019-02-23T04:09:44.160Z,18.45
2019-02-23T04:12:13.271Z,14.10
2019-02-23T04:14:42.428Z,17.85
2019-02-23T04:17:11.538Z,19.32
2019-02-23T04:19:40.614Z,19.60
2019-02-23T04:22:09.787Z,13.58
2019-02-23T04:24:38.878Z,14.58
2019-02-23T04:27:08.058Z,16.20
2019-02-23T04:29:37.136Z,13.30
2019-02-23T04:32:06.324Z,14.18
2019-02-23T04:34:35.480Z,12.47
2019-02-23T04:37:04.582Z,14.33
2019-02-23T04:39:33.649Z,16.32
2019-02-23T04:42:02.732Z,16.05
2019-02-23T04:44:31.811Z,14.55
2019-02-23T04:47:00.955Z,15.58
2019-02-23T04:49:30.119Z,12.07
2019-02-23T04:51:59.235Z,13.15
2019-02-23T04:54:28.308Z,13.00
2019-02-23T04:56:57.412Z,22.20
2019-02-23T04:59:26.503Z,14.90
2019-02-23T05:01:55.609Z,13.60
2019-02-23T05:04:24.773Z,12.25
2019-02-23T05:06:53.939Z,16.87
2019-02-23T05:09:23.082Z,12.50
2019-02-23T05:11:52.179Z,11.60
2019-02-23T05:14:21.269Z,15.23
2019-02-23T05:16:50.374Z,14.20
2019-02-23T05:19:19.545Z,18.25
2019-02-23T05:21:48.711Z,12.28
2019-02-23T05:24:17.799Z,19.75
2019-02-23T05:26:46.903Z,21.20
2019-02-23T05:29:15.975Z,16.32
2019-02-23T05:31:45.076Z,22.07
2019-02-23T05:34:14.210Z,16.60
2019-02-23T05:36:43.369Z,20.52
2019-02-23T05:39:12.451Z,18.75
2019-02-23T05:41:41.573Z,17.95
2019-02-23T05:44:10.668Z,14.68
2019-02-23T05:46:39.851Z,16.50
2019-02-23T05:49:08.930Z,15.20
2019-02-23T05:51:39.017Z,17.40
2019-02-23T05:54:08.388Z,14.20
2019-02-23T05:56:37.559Z,17.30
2019-02-23T05:59:06.724Z,17.25
2019-02-23T06:01:35.907Z,14.38
2019-02-23T06:04:04.991Z,15.20
2019-02-23T06:06:34.118Z,14.58
2019-02-23T06:09:04.056Z,14.75
2019-02-23T06:11:33.300Z,16.75
2019-02-23T06:14:02.459Z,13.03
2019-02-23T06:16:31.542Z,14.68
2019-02-23T06:19:00.656Z,14.45
2019-02-23T06:21:29.803Z,16.00
2019-02-23T06:23:58.888Z,18.12
2019-02-23T06:26:28.011Z,15.23
2019-02-23T06:28:57.079Z,13.88
2019-02-23T06:31:26.184Z,15.75
2019-02-23T06:33:55.265Z,16.65
2019-02-23T06:36:24.406Z,19.45
2019-02-23T06:38:53.484Z,21.60
2019-02-23T06:41:22.575Z,14.07
2019-02-23T06:43:51.651Z,16.32
2019-02-23T06:46:20.755Z,16.87
2019-02-23T06:48:49.903Z,13.50
2019-02-23T06:51:19.007Z,15.43
2019-02-23T06:53:48.114Z,14.63
2019-02-23T06:56:17.214Z,12.40
2019-02-23T06:58:46.391Z,13.98
2019-02-23T07:01:15.554Z,16.77
2019-02-23T07:03:46.118Z,26.25
2019-02-23T07:06:15.237Z,16.35
2019-02-23T07:08:44.315Z,16.55
2019-02-23T07:11:13.407Z,15.25
2019-02-23T07:13:42.495Z,13.38
2019-02-23T07:16:11.662Z,15.28
2019-02-23T07:18:40.742Z,17.37
2019-02-23T07:21:09.844Z,16.75
2019-02-23T07:23:38.995Z,13.18
2019-02-23T07:26:08.088Z,16.90
2019-02-23T07:28:37.242Z,16.77
2019-02-23T07:31:06.404Z,18.07
2019-02-23T07:33:35.472Z,12.35
2019-02-23T07:36:04.661Z,15.85
2019-02-23T07:38:35.495Z,14.00
2019-02-23T07:41:04.570Z,19.12
2019-02-23T07:43:33.655Z,15.03
2019-02-23T07:46:02.765Z,13.98
2019-02-23T07:48:31.861Z,14.25
2019-02-23T07:51:01.036Z,10.18
2019-02-23T07:53:30.229Z,14.60
2019-02-23T07:55:59.392Z,15.25
2019-02-23T07:58:28.471Z,15.60
2019-02-23T08:00:57.579Z,18.42
2019-02-23T08:03:26.658Z,15.25
2019-02-23T08:05:55.751Z,15.38
2019-02-23T08:08:24.837Z,13.78
2019-02-23T08:10:54.012Z,13.08
2019-02-23T08:13:23.091Z,18.48
2019-02-23T08:15:52.616Z,15.08
2019-02-23T08:18:21.774Z,21.70
2019-02-23T08:20:50.871Z,13.70
2019-02-23T08:23:20.250Z,11.70
2019-02-23T08:25:49.436Z,12.63
2019-02-23T08:28:18.550Z,15.53
2019-02-23T08:30:47.751Z,11.63
2019-02-23T08:33:18.443Z,12.75
2019-02-23T08:35:47.575Z,13.78
2019-02-23T08:38:16.700Z,13.50
2019-02-23T08:40:46.058Z,13.05
2019-02-23T08:43:15.159Z,12.73
2019-02-23T08:45:44.280Z,14.00
2019-02-23T08:48:13.403Z,12.50
2019-02-23T08:50:42.588Z,11.80
2019-02-23T08:53:11.757Z,15.35
2019-02-23T08:55:40.859Z,13.50
2019-02-23T08:58:09.947Z,18.52
2019-02-23T09:00:39.205Z,12.80
2019-02-23T09:03:08.385Z,15.28
2019-02-23T09:05:37.582Z,15.90
2019-02-23T09:08:06.748Z,18.25
2019-02-23T09:10:35.853Z,20.62
2019-02-23T09:13:04.965Z,17.00
2019-02-23T09:15:34.076Z,17.05
2019-02-23T09:18:04.213Z,14.38
2019-02-23T09:20:33.308Z,15.53
2019-02-23T09:23:02.479Z,14.65
2019-02-23T09:25:31.652Z,11.25
2019-02-23T09:28:00.720Z,11.25
2019-02-23T09:30:29.811Z,18.35
2019-02-23T09:32:58.988Z,13.35
2019-02-23T09:35:28.155Z,17.77
2019-02-23T09:37:57.255Z,16.00
2019-02-23T09:40:26.339Z,12.45
2019-02-23T09:42:55.410Z,13.35
2019-02-23T09:45:24.476Z,14.10
2019-02-23T09:47:53.620Z,13.80
2019-02-23T09:50:22.699Z,14.55
2019-02-23T09:52:51.861Z,14.13
2019-02-23T09:55:21.087Z,11.85
2019-02-23T09:57:50.175Z,13.95
2019-02-23T10:00:19.247Z,13.30
2019-02-23T10:02:48.407Z,15.10
2019-02-23T10:05:17.740Z,11.60
2019-02-23T10:07:46.889Z,10.95
2019-02-23T10:10:16.105Z,24.37
2019-02-23T10:12:45.204Z,13.40
2019-02-23T10:15:14.444Z,13.90
2019-02-23T10:17:43.553Z,13.50
2019-02-23T10:20:12.646Z,15.43
2019-02-23T10:22:41.823Z,10.80
2019-02-23T10:25:11.356Z,12.30
2019-02-23T10:27:40.563Z,17.42
2019-02-23T10:30:10.627Z,32.83
2019-02-23T10:32:39.808Z,12.30
2019-02-23T10:35:10.140Z,13.48
2019-02-23T10:37:39.373Z,10.15
2019-02-23T10:40:09.510Z,10.48
2019-02-23T10:42:38.745Z,9.60
2019-02-23T10:45:08.867Z,10.20
2019-02-23T10:47:37.975Z,10.98
2019-02-23T10:50:07.919Z,17.95
2019-02-23T10:52:37.107Z,10.70
2019-02-23T10:55:07.735Z,11.08
2019-02-23T10:57:36.807Z,9.33
2019-02-23T11:00:10.207Z,10.60
2019-02-23T11:02:39.359Z,10.35
2019-02-23T11:05:09.538Z,10.18
2019-02-23T11:07:38.648Z,7.28
2019-02-23T11:10:08.180Z,12.45
2019-02-23T11:12:37.318Z,9.65
2019-02-23T11:15:07.770Z,12.23
2019-02-23T11:17:36.943Z,9.80
2019-02-23T11:20:06.036Z,9.08
2019-02-23T11:22:35.297Z,11.93
2019-02-23T11:25:05.287Z,9.08
2019-02-23T11:27:34.347Z,7.35
2019-02-23T11:30:03.554Z,8.70
2019-02-23T11:32:32.852Z,7.62
2019-02-23T11:35:02.012Z,6.85
2019-02-23T11:37:31.079Z,8.00
2019-02-23T11:40:00.171Z,7.28
2019-02-23T11:42:29.264Z,8.20
2019-02-23T11:44:58.315Z,7.78
2019-02-23T11:47:27.390Z,5.80
2019-02-23T11:49:56.454Z,5.87
2019-02-23T11:52:25.570Z,6.05
2019-02-23T11:54:54.627Z,6.58
2019-02-23T11:57:23.790Z,7.17
2019-02-23T11:59:52.863Z,8.98
2019-02-23T12:02:21.968Z,8.60
2019-02-23T12:04:51.066Z,6.28
2019-02-23T12:07:20.241Z,10.20
2019-02-23T12:09:49.408Z,4.33
2019-02-23T12:12:18.463Z,5.67
2019-02-23T12:14:47.571Z,6.62
2019-02-23T12:17:16.696Z,5.50
2019-02-23T12:19:45.802Z,5.00
2019-02-23T12:22:14.891Z,5.45
2019-02-23T12:24:43.964Z,3.83
2019-02-23T12:27:13.057Z,5.80
2019-02-23T12:29:42.208Z,4.92
2019-02-23T12:32:11.311Z,3.45
2019-02-23T12:34:40.362Z,7.25
2019-02-23T12:37:09.575Z,7.58
2019-02-23T12:39:38.665Z,8.55
2019-02-23T12:42:07.764Z,7.15
2019-02-23T12:44:36.879Z,5.08
2019-02-23T12:47:05.992Z,5.17
2019-02-23T12:49:35.108Z,8.38
2019-02-23T12:52:04.367Z,8.10
2019-02-23T12:54:33.487Z,5.50
2019-02-23T12:57:02.683Z,6.17
2019-02-23T12:59:31.845Z,4.72
2019-02-23T13:02:01.300Z,5.00
2019-02-23T13:04:30.446Z,4.85
2019-02-23T13:06:59.542Z,5.67
2019-02-23T13:09:31.341Z,5.47
2019-02-23T13:12:16.677Z,6.55
2019-02-23T13:15:01.920Z,6.20
2019-02-23T13:17:55.187Z,6.28
2019-02-23T13:20:42.719Z,6.83
2019-02-23T13:23:58.592Z,5.72
2019-02-23T13:27:02.740Z,5.58
2019-02-23T13:30:10.933Z,9.78
2019-02-23T13:33:15.352Z,8.45
2019-02-23T13:36:15.304Z,6.25
2019-02-23T13:39:28.665Z,7.15
2019-02-23T13:42:39.141Z,8.40
2019-02-23T13:45:41.174Z,9.23
2019-02-23T13:48:41.275Z,8.38
2019-02-23T13:51:41.447Z,8.90
2019-02-23T13:54:43.975Z,9.60
2019-02-23T13:58:01.374Z,9.08
2019-02-23T14:01:06.056Z,7.00
2019-02-23T14:03:59.630Z,5.80
2019-02-23T14:06:44.789Z,8.53
2019-02-23T14:09:57.436Z,13.68
2019-02-23T14:12:47.312Z,6.03
2019-02-23T14:15:47.316Z,10.23
2019-02-23T14:18:45.507Z,8.58
2019-02-23T14:21:45.346Z,6.28
2019-02-23T14:24:50.774Z,5.83
2019-02-23T14:27:41.085Z,8.38
2019-02-23T14:31:12.900Z,9.60
2019-02-23T14:34:07.416Z,13.55
2019-02-23T14:37:11.346Z,9.10
2019-02-23T14:40:33.207Z,10.93
2019-02-23T14:43:18.554Z,7.65
2019-02-23T14:46:20.967Z,8.65
2019-02-23T14:49:09.577Z,9.40
2019-02-23T14:52:08.506Z,7.37
2019-02-23T14:55:04.032Z,8.40
2019-02-23T14:58:07.015Z,10.65
2019-02-23T15:01:15.691Z,9.75
2019-02-23T15:04:50.245Z,9.10
2019-02-23T15:08:06.349Z,14.60
2019-02-23T15:11:17.835Z,12.95
2019-02-23T15:14:24.155Z,13.65
2019-02-23T15:17:15.427Z,14.83
2019-02-23T15:20:32.755Z,11.53
2019-02-23T15:23:32.880Z,13.48
2019-02-23T15:26:32.058Z,13.45
2019-02-23T15:29:33.060Z,12.10
2019-02-23T15:32:29.333Z,11.38
2019-02-23T15:35:25.982Z,11.65
2019-02-23T15:38:34.270Z,13.45
2019-02-23T15:42:00.005Z,17.85
2019-02-23T15:45:00.157Z,15.65
2019-02-23T15:47:45.932Z,10.90
2019-02-23T15:50:15.164Z,15.60
2019-02-23T15:52:44.447Z,13.40
2019-02-23T15:55:25.360Z,12.47
2019-02-23T15:57:44.528Z,10.90
2019-02-23T16:00:15.230Z,13.05
2019-02-23T16:02:44.368Z,13.35
2019-02-23T16:05:13.702Z,13.58
2019-02-23T16:07:42.791Z,11.33
2019-02-23T16:10:11.888Z,17.35
2019-02-23T16:12:41.034Z,13.98
2019-02-23T16:15:10.355Z,11.20
2019-02-23T16:17:39.624Z,13.35
2019-02-23T16:20:09.124Z,13.40
2019-02-23T16:22:38.387Z,13.45
2019-02-23T16:25:07.948Z,16.87
2019-02-23T16:27:37.047Z,17.42
2019-02-23T16:30:07.208Z,14.45
2019-02-23T16:32:36.367Z,18.30
2019-02-23T16:35:05.616Z,16.35
2019-02-23T16:37:34.720Z,21.60
2019-02-23T16:40:04.213Z,18.77
2019-02-23T16:42:33.394Z,18.50
2019-02-23T16:45:02.684Z,18.40
2019-02-23T16:47:31.877Z,14.68
2019-02-23T16:50:00.978Z,20.80
2019-02-23T16:52:30.139Z,17.67
2019-02-23T16:54:59.257Z,14.07
2019-02-23T16:57:28.418Z,17.02
2019-02-23T16:59:58.786Z,18.07
2019-02-23T17:02:27.902Z,15.55
2019-02-23T17:04:57.054Z,14.05
2019-02-23T17:07:26.191Z,17.35
2019-02-23T17:09:55.304Z,16.20
2019-02-23T17:12:24.556Z,16.93
2019-02-23T17:14:53.711Z,19.23
2019-02-23T17:17:29.268Z,15.05
2019-02-23T17:20:05.059Z,16.12
2019-02-23T17:22:35.309Z,18.35
2019-02-23T17:25:18.136Z,16.75
2019-02-23T17:27:49.480Z,16.73
2019-02-23T17:30:18.608Z,14.60
2019-02-23T17:32:47.887Z,15.30
2019-02-23T17:35:17.060Z,16.95
2019-02-23T17:37:46.217Z,25.60
2019-02-23T17:40:15.372Z,15.35
2019-02-23T17:42:44.587Z,16.50
2019-02-23T17:45:15.042Z,16.20
2019-02-23T17:47:44.271Z,19.10
2019-02-23T17:50:13.540Z,14.55
2019-02-23T17:52:42.637Z,18.45
2019-02-23T17:55:11.906Z,18.70
2019-02-23T17:57:41.112Z,16.35
2019-02-23T18:00:11.149Z,19.17
2019-02-23T18:02:40.247Z,20.05
2019-02-23T18:05:09.404Z,22.17
2019-02-23T18:07:38.535Z,22.25
2019-02-23T18:10:07.862Z,19.75
2019-02-23T18:12:36.969Z,20.62
2019-02-23T18:15:06.230Z,21.00
2019-02-23T18:17:35.388Z,20.08
2019-02-23T18:20:05.060Z,23.25
2019-02-23T18:22:34.276Z,22.10
2019-02-23T18:25:03.482Z,22.40
2019-02-23T18:27:32.654Z,24.57
2019-02-23T18:30:10.773Z,24.40
2019-02-23T18:32:32.573Z,22.20
2019-02-23T18:35:01.693Z,19.27
2019-02-23T18:37:30.848Z,20.55
2019-02-23T18:39:59.979Z,18.57
2019-02-23T18:42:29.069Z,21.40
2019-02-23T18:44:58.253Z,20.45
2019-02-23T18:47:27.446Z,19.25
2019-02-23T18:49:56.626Z,14.05
2019-02-23T18:52:25.900Z,17.00
2019-02-23T18:54:56.184Z,16.65
2019-02-23T18:57:25.284Z,17.27
2019-02-23T18:59:54.423Z,15.70
2019-02-23T19:02:23.560Z,16.35
2019-02-23T19:04:52.646Z,17.92
2019-02-23T19:07:23.253Z,15.35
2019-02-23T19:09:52.369Z,16.50
2019-02-23T19:12:23.864Z,16.48
2019-02-23T19:14:53.043Z,16.50
2019-02-23T19:17:23.647Z,16.23
2019-02-23T19:19:52.774Z,11.80
2019-02-23T19:22:21.935Z,17.27
2019-02-23T19:24:51.059Z,13.28
2019-02-23T19:27:20.177Z,13.03
2019-02-23T19:29:49.331Z,15.15
2019-02-23T19:32:18.521Z,14.53
2019-02-23T19:34:47.603Z,13.58
2019-02-23T19:37:17.800Z,14.00
2019-02-23T19:39:46.895Z,16.23
2019-02-23T19:42:50.346Z,14.93
2019-02-23T19:45:19.624Z,17.87
2019-02-23T19:48:00.693Z,14.60
2019-02-23T19:50:23.319Z,12.98
2019-02-23T19:52:54.855Z,15.03
2019-02-23T19:55:24.059Z,16.82
2019-02-23T19:57:53.165Z,17.80
2019-02-23T20:00:27.580Z,18.32
2019-02-23T20:02:56.779Z,16.82
2019-02-23T20:05:26.827Z,15.10
2019-02-23T20:07:56.044Z,19.12
2019-02-23T20:10:30.753Z,14.93
2019-02-23T20:12:59.947Z,14.40
2019-02-23T20:15:29.131Z,12.33
2019-02-23T20:18:01.225Z,14.90
2019-02-23T20:20:30.354Z,18.67
2019-02-23T20:23:00.118Z,14.40
2019-02-23T20:25:29.389Z,17.27
2019-02-23T20:27:58.495Z,13.35
2019-02-23T20:30:27.659Z,12.60
2019-02-23T20:32:56.839Z,15.85
2019-02-23T20:35:26.076Z,15.60
2019-02-23T20:37:55.199Z,14.68
2019-02-23T20:40:24.290Z,16.32
2019-02-23T20:42:53.787Z,15.72
2019-02-23T20:45:22.994Z,16.10
2019-02-23T20:47:52.273Z,15.28
2019-02-23T20:50:22.026Z,11.88
2019-02-23T20:52:51.308Z,16.77
2019-02-23T20:55:20.394Z,16.75
2019-02-23T20:57:49.587Z,17.00
2019-02-23T21:00:18.766Z,15.03
2019-02-23T21:02:47.862Z,13.70
2019-02-23T21:05:17.038Z,15.03
2019-02-23T21:07:46.308Z,18.98
2019-02-23T21:10:15.420Z,14.40
2019-02-23T21:12:44.523Z,16.07
2019-02-23T21:15:13.834Z,13.58
2019-02-23T21:17:42.955Z,21.52
2019-02-23T21:20:12.127Z,19.55
2019-02-23T21:22:41.275Z,23.87
2019-02-23T21:25:10.497Z,56.30
2019-02-23T21:27:39.663Z,26.35
2019-02-23T21:30:08.965Z,16.95
2019-02-23T21:32:38.116Z,16.73
2019-02-23T21:35:07.378Z,19.20
2019-02-23T21:37:36.480Z,16.80
2019-02-23T21:40:05.914Z,13.85
2019-02-23T21:42:35.100Z,16.57
2019-02-23T21:45:04.591Z,17.92
2019-02-23T21:47:33.683Z,19.73
2019-02-23T21:50:02.823Z,18.02
2019-02-23T21:52:32.012Z,14.63
2019-02-23T21:55:01.182Z,16.27
2019-02-23T21:57:30.366Z,14.43
2019-02-23T21:59:59.512Z,17.62
2019-02-23T22:02:28.707Z,16.70
2019-02-23T22:04:57.807Z,16.15
2019-02-23T22:07:26.891Z,19.10
2019-02-23T22:09:56.075Z,19.42
2019-02-23T22:12:25.238Z,19.73
2019-02-23T22:14:54.490Z,14.93
2019-02-23T22:17:23.666Z,15.18
2019-02-23T22:19:52.840Z,13.50
2019-02-23T22:22:21.940Z,16.40
2019-02-23T22:24:51.224Z,15.20
2019-02-23T22:27:20.382Z,15.13
2019-02-23T22:29:49.523Z,14.45
2019-02-23T22:32:18.625Z,12.82
2019-02-23T22:34:47.783Z,12.88
2019-02-23T22:37:16.886Z,15.58
2019-02-23T22:39:46.071Z,20.80
2019-02-23T22:42:15.281Z,17.02
2019-02-23T22:44:44.447Z,20.90
2019-02-23T22:47:13.620Z,17.17
2019-02-23T22:49:42.772Z,19.02
2019-02-23T22:52:11.867Z,17.40
2019-02-23T22:54:40.987Z,17.42
2019-02-23T22:57:10.113Z,15.38
2019-02-23T22:59:39.219Z,18.45
2019-02-23T23:02:08.383Z,16.95
2019-02-23T23:04:37.565Z,20.27
2019-02-23T23:07:06.796Z,15.68
2019-02-23T23:09:35.960Z,16.57
2019-02-23T23:12:05.284Z,18.82
2019-02-23T23:14:34.445Z,19.77
2019-02-23T23:17:03.619Z,15.72
2019-02-23T23:19:32.789Z,23.30
2019-02-23T23:22:01.920Z,19.35
2019-02-23T23:24:31.021Z,23.60
2019-02-23T23:27:00.196Z,19.48
2019-02-23T23:29:29.304Z,19.57
2019-02-23T23:31:58.428Z,18.48
2019-02-23T23:34:27.539Z,19.82
2019-02-23T23:36:56.641Z,23.60
2019-02-23T23:39:25.812Z,21.70
2019-02-23T23:41:54.909Z,20.80
2019-02-23T23:44:24.000Z,21.37
2019-02-23T23:46:53.096Z,18.30
2019-02-23T23:49:22.196Z,21.97
2019-02-23T23:51:51.290Z,21.23
2019-02-23T23:54:20.386Z,21.02
2019-02-23T23:56:49.495Z,20.70
2019-02-23T23:59:18.640Z,20.75
